createdAt,value
2022-10-17T00:01:14.010Z,97.93
2022-10-17T00:03:42.807Z,96.90
2022-10-17T00:06:16.075Z,95.71
2022-10-17T00:08:45.517Z,95.31
2022-10-17T00:11:23.545Z,94.83
2022-10-17T00:13:55.280Z,96.01
2022-10-17T00:16:30.731Z,94.91
2022-10-17T00:18:59.063Z,94.80
2022-10-17T00:21:28.117Z,94.28
2022-10-17T00:23:56.702Z,93.33
2022-10-17T00:26:25.144Z,93.41
2022-10-17T00:28:54.131Z,93.11
2022-10-17T00:31:24.225Z,92.39
2022-10-17T00:33:53.625Z,93.07
2022-10-17T00:36:24.838Z,91.90
2022-10-17T00:38:56.640Z,90.98
2022-10-17T00:41:31.400Z,90.85
2022-10-17T00:44:07.602Z,90.27
2022-10-17T00:46:39.167Z,90.35
2022-10-17T00:49:11.315Z,90.26
2022-10-17T00:51:46.626Z,89.45
2022-10-17T00:54:17.360Z,88.82
2022-10-17T00:56:48.042Z,88.23
2022-10-17T00:59:18.968Z,87.43
2022-10-17T01:02:03.263Z,87.13
2022-10-17T01:04:31.765Z,86.94
2022-10-17T01:07:00.130Z,87.08
2022-10-17T01:09:28.952Z,87.43
2022-10-17T01:12:06.212Z,87.12
2022-10-17T01:15:01.045Z,86.38
2022-10-17T01:17:47.527Z,86.19
2022-10-17T01:21:09.306Z,81.63
2022-10-17T01:24:05.100Z,81.85
2022-10-17T01:26:36.327Z,82.78
2022-10-17T01:29:18.075Z,82.46
2022-10-17T01:32:02.539Z,80.92
2022-10-17T01:34:39.558Z,81.55
2022-10-17T01:37:35.288Z,81.24
2022-10-17T01:40:09.980Z,82.61
2022-10-17T01:42:49.958Z,78.55
2022-10-17T01:45:41.509Z,75.69
2022-10-17T01:48:16.562Z,76.41
2022-10-17T01:51:08.775Z,75.88
2022-10-17T01:53:45.942Z,77.50
2022-10-17T01:56:18.135Z,76.39
2022-10-17T01:58:54.224Z,77.36
2022-10-17T02:01:24.911Z,76.33
2022-10-17T02:03:54.790Z,78.15
2022-10-17T02:06:23.175Z,76.66
2022-10-17T02:08:52.848Z,76.17
2022-10-17T02:11:28.838Z,79.20
2022-10-17T02:14:21.229Z,75.95
2022-10-17T02:17:17.890Z,77.57
2022-10-17T02:19:58.805Z,75.55
2022-10-17T02:22:39.304Z,74.40
2022-10-17T02:25:19.954Z,75.35
2022-10-17T02:28:06.607Z,72.74
2022-10-17T02:30:51.363Z,74.75
2022-10-17T02:33:45.443Z,70.94
2022-10-17T02:36:20.258Z,72.10
2022-10-17T02:38:50.307Z,72.19
2022-10-17T02:41:20.731Z,72.44
2022-10-17T02:43:51.720Z,72.62
2022-10-17T02:46:23.137Z,68.55
2022-10-17T02:49:23.774Z,70.22
2022-10-17T02:51:57.644Z,70.87
2022-10-17T02:54:33.724Z,67.24
2022-10-17T02:57:20.497Z,71.53
2022-10-17T02:59:50.576Z,70.18
2022-10-17T03:02:19.524Z,68.89
2022-10-17T03:04:48.959Z,68.80
2022-10-17T03:07:17.554Z,66.70
2022-10-17T03:09:46.069Z,66.53
2022-10-17T03:12:14.370Z,66.51
2022-10-17T03:14:42.723Z,64.65
2022-10-17T03:17:11.091Z,67.59
2022-10-17T03:19:39.524Z,64.28
2022-10-17T03:22:07.849Z,62.88
2022-10-17T03:24:36.170Z,65.27
2022-10-17T03:27:04.844Z,64.21
2022-10-17T03:29:33.207Z,65.41
2022-10-17T03:32:01.529Z,65.43
2022-10-17T03:34:29.847Z,60.92
2022-10-17T03:36:58.190Z,64.46
2022-10-17T03:39:26.574Z,63.80
2022-10-17T03:41:54.918Z,64.88
2022-10-17T03:44:23.299Z,62.41
2022-10-17T03:46:51.628Z,62.97
2022-10-17T03:49:19.940Z,64.04
2022-10-17T03:51:48.253Z,63.57
2022-10-17T03:54:16.632Z,62.86
2022-10-17T03:56:45.061Z,60.67
2022-10-17T03:59:15.755Z,60.52
2022-10-17T04:01:44.520Z,59.09
2022-10-17T04:04:13.712Z,58.98
2022-10-17T04:06:42.178Z,59.00
2022-10-17T04:09:13.178Z,61.18
2022-10-17T04:11:41.602Z,61.09
2022-10-17T04:14:11.978Z,57.49
2022-10-17T04:16:40.841Z,59.45
2022-10-17T04:19:09.163Z,60.37
2022-10-17T04:21:37.568Z,57.58
2022-10-17T04:24:06.362Z,58.59
2022-10-17T04:26:34.656Z,61.93
2022-10-17T04:29:03.002Z,60.75
2022-10-17T04:31:31.405Z,59.67
2022-10-17T04:33:59.738Z,59.84
2022-10-17T04:36:28.111Z,61.17
2022-10-17T04:38:56.395Z,59.28
2022-10-17T04:41:24.849Z,58.11
2022-10-17T04:43:54.183Z,60.92
2022-10-17T04:46:22.549Z,57.85
2022-10-17T04:48:51.140Z,55.06
2022-10-17T04:51:23.056Z,58.59
2022-10-17T04:53:54.231Z,57.25
2022-10-17T04:56:24.997Z,60.35
2022-10-17T04:58:53.944Z,57.86
2022-10-17T05:01:24.706Z,59.71
2022-10-17T05:03:54.400Z,59.25
2022-10-17T05:06:26.762Z,55.91
2022-10-17T05:08:55.515Z,58.77
2022-10-17T05:11:27.832Z,53.44
2022-10-17T05:14:01.809Z,57.91
2022-10-17T05:16:31.065Z,55.39
2022-10-17T05:19:00.703Z,57.27
2022-10-17T05:21:31.087Z,55.00
2022-10-17T05:23:59.656Z,57.21
2022-10-17T05:26:28.064Z,56.38
2022-10-17T05:28:56.479Z,55.63
2022-10-17T05:31:24.903Z,54.71
2022-10-17T05:33:53.306Z,57.38
2022-10-17T05:36:21.732Z,58.51
2022-10-17T05:38:53.624Z,54.85
2022-10-17T05:41:22.336Z,55.77
2022-10-17T05:43:51.253Z,55.83
2022-10-17T05:46:19.813Z,54.85
2022-10-17T05:48:48.120Z,52.93
2022-10-17T05:51:16.435Z,53.57
2022-10-17T05:53:44.838Z,54.04
2022-10-17T05:56:15.329Z,55.96
2022-10-17T05:58:51.600Z,55.96
2022-10-17T06:01:21.974Z,52.84
2022-10-17T06:03:50.346Z,50.72
2022-10-17T06:06:20.368Z,51.44
2022-10-17T06:08:48.733Z,50.29
2022-10-17T06:11:17.137Z,50.58
2022-10-17T06:13:45.452Z,50.69
2022-10-17T06:16:13.826Z,50.20
2022-10-17T06:18:42.206Z,49.28
2022-10-17T06:21:12.832Z,50.33
2022-10-17T06:23:41.207Z,51.25
2022-10-17T06:26:10.143Z,49.80
2022-10-17T06:28:38.651Z,46.50
2022-10-17T06:31:12.127Z,50.02
2022-10-17T06:33:41.081Z,48.83
2022-10-17T06:36:12.696Z,48.52
2022-10-17T06:38:41.689Z,47.17
2022-10-17T06:41:15.719Z,48.01
2022-10-17T06:43:48.158Z,49.10
2022-10-17T06:46:18.558Z,50.84
2022-10-17T06:48:46.955Z,50.06
2022-10-17T06:51:15.330Z,49.22
2022-10-17T06:53:43.675Z,50.13
2022-10-17T06:56:12.679Z,51.46
2022-10-17T06:58:41.990Z,52.44
2022-10-17T07:01:13.823Z,52.68
2022-10-17T07:03:42.716Z,51.86
2022-10-17T07:06:14.338Z,52.44
2022-10-17T07:08:51.578Z,51.53
2022-10-17T07:11:23.480Z,52.26
2022-10-17T07:13:51.877Z,50.13
2022-10-17T07:16:20.359Z,50.43
2022-10-17T07:18:51.970Z,50.63
2022-10-17T07:21:20.355Z,52.45
2022-10-17T07:23:48.719Z,50.87
2022-10-17T07:26:19.085Z,49.79
2022-10-17T07:28:49.018Z,49.82
2022-10-17T07:31:20.408Z,51.81
2022-10-17T07:33:49.132Z,51.71
2022-10-17T07:36:17.858Z,50.65
2022-10-17T07:38:46.308Z,52.35
2022-10-17T07:41:19.234Z,52.10
2022-10-17T07:43:50.186Z,54.13
2022-10-17T07:46:18.618Z,51.88
2022-10-17T07:48:47.110Z,52.00
2022-10-17T07:51:15.526Z,52.92
2022-10-17T07:53:48.688Z,50.57
2022-10-17T07:56:17.849Z,52.68
2022-10-17T07:58:59.858Z,50.68
2022-10-17T08:01:31.110Z,50.57
2022-10-17T08:03:59.693Z,52.04
2022-10-17T08:06:28.443Z,51.09
2022-10-17T08:08:58.820Z,52.46
2022-10-17T08:11:27.167Z,52.83
2022-10-17T08:13:55.702Z,51.14
2022-10-17T08:16:24.022Z,49.30
2022-10-17T08:18:52.494Z,49.64
2022-10-17T08:21:21.000Z,51.20
2022-10-17T08:23:49.391Z,52.94
2022-10-17T08:26:18.658Z,52.04
2022-10-17T08:28:47.899Z,53.54
2022-10-17T08:31:21.593Z,51.65
2022-10-17T08:33:51.559Z,52.77
2022-10-17T08:36:21.972Z,53.35
2022-10-17T08:38:52.841Z,53.39
2022-10-17T08:41:46.943Z,53.52
2022-10-17T08:44:43.861Z,53.36
2022-10-17T08:47:16.599Z,53.21
2022-10-17T08:49:48.847Z,54.58
2022-10-17T08:52:40.713Z,53.92
2022-10-17T08:55:20.929Z,55.07
2022-10-17T08:57:50.889Z,54.60
2022-10-17T09:00:22.175Z,55.07
2022-10-17T09:03:09.593Z,54.66
2022-10-17T09:05:44.239Z,54.80
2022-10-17T09:08:37.317Z,55.47
2022-10-17T09:11:28.300Z,55.48
2022-10-17T09:14:41.443Z,54.79
2022-10-17T09:17:35.881Z,54.73
2022-10-17T09:20:19.649Z,53.05
2022-10-17T09:23:02.339Z,54.29
2022-10-17T09:25:36.529Z,53.70
2022-10-17T09:28:38.488Z,55.20
2022-10-17T09:31:08.579Z,55.86
2022-10-17T09:33:53.944Z,55.93
2022-10-17T09:36:30.724Z,55.92
2022-10-17T09:39:03.101Z,57.02
2022-10-17T09:41:47.237Z,59.26
2022-10-17T09:44:23.541Z,59.77
2022-10-17T09:47:16.131Z,59.89
2022-10-17T09:49:47.590Z,59.01
2022-10-17T09:52:37.693Z,58.45
2022-10-17T09:55:18.458Z,58.90
2022-10-17T09:58:01.029Z,59.84
2022-10-17T10:00:39.261Z,60.17
2022-10-17T10:03:24.625Z,60.38
2022-10-17T10:06:08.880Z,61.21
2022-10-17T10:08:59.592Z,61.97
2022-10-17T10:11:51.636Z,63.01
2022-10-17T10:14:35.714Z,62.74
2022-10-17T10:17:06.900Z,62.32
2022-10-17T10:19:37.893Z,62.66
2022-10-17T10:22:20.544Z,62.07
2022-10-17T10:25:18.252Z,62.84
2022-10-17T10:27:48.565Z,62.95
2022-10-17T10:30:29.905Z,62.87
2022-10-17T10:33:01.603Z,62.20
2022-10-17T10:35:39.753Z,63.22
2022-10-17T10:38:19.383Z,63.56
2022-10-17T10:40:52.334Z,63.64
2022-10-17T10:43:41.137Z,64.48
2022-10-17T10:46:25.006Z,66.13
2022-10-17T10:49:02.081Z,68.42
2022-10-17T10:51:39.203Z,69.79
2022-10-17T10:54:14.370Z,70.79
2022-10-17T10:57:10.113Z,71.44
2022-10-17T10:59:53.003Z,72.69
2022-10-17T11:02:39.663Z,74.15
2022-10-17T11:05:42.653Z,75.13
2022-10-17T11:08:34.031Z,75.07
2022-10-17T11:11:24.745Z,75.54
2022-10-17T11:14:09.655Z,76.14
2022-10-17T11:17:11.461Z,76.69
2022-10-17T11:19:54.268Z,76.85
2022-10-17T11:22:32.627Z,76.87
2022-10-17T11:25:25.517Z,76.61
2022-10-17T11:27:53.872Z,77.30
2022-10-17T11:30:25.463Z,78.01
2022-10-17T11:33:06.589Z,78.73
2022-10-17T11:35:40.359Z,79.31
2022-10-17T11:38:11.402Z,80.30
2022-10-17T11:40:45.503Z,81.07
2022-10-17T11:43:23.774Z,82.51
2022-10-17T11:45:59.467Z,82.67
2022-10-17T11:48:38.561Z,83.13
2022-10-17T11:54:12.995Z,83.70
2022-10-17T11:57:10.756Z,84.41
2022-10-17T12:00:16.177Z,84.11
2022-10-17T12:02:52.250Z,83.72
2022-10-17T12:05:51.944Z,83.02
2022-10-17T12:08:32.611Z,82.92
2022-10-17T12:11:16.532Z,82.20
2022-10-17T12:13:48.618Z,82.23
2022-10-17T12:16:22.931Z,83.43
2022-10-17T12:19:13.487Z,83.65
2022-10-17T12:22:19.673Z,83.39
2022-10-17T12:25:03.383Z,83.05
2022-10-17T12:27:51.236Z,83.66
2022-10-17T12:30:29.577Z,84.32
2022-10-17T12:33:38.059Z,84.55
2022-10-17T12:36:18.720Z,85.33
2022-10-17T12:39:12.600Z,86.33
2022-10-17T12:41:40.926Z,87.18
2022-10-17T12:44:15.407Z,87.97
2022-10-17T12:47:05.484Z,88.05
2022-10-17T12:49:55.785Z,88.37
2022-10-17T12:52:36.093Z,88.61
2022-10-17T12:55:12.717Z,88.68
2022-10-17T12:57:56.589Z,88.88
2022-10-17T13:00:30.841Z,89.13
2022-10-17T13:03:12.507Z,89.31
2022-10-17T13:05:46.742Z,89.75
2022-10-17T13:08:32.007Z,89.73
2022-10-17T13:11:02.298Z,89.90
2022-10-17T13:13:50.601Z,89.76
2022-10-17T13:16:34.872Z,89.94
2022-10-17T13:19:15.426Z,90.35
2022-10-17T13:22:02.270Z,90.82
2022-10-17T13:24:35.198Z,90.49
2022-10-17T13:27:05.832Z,91.17
2022-10-17T13:29:35.260Z,91.25
2022-10-17T13:32:06.456Z,91.28
2022-10-17T13:34:35.986Z,91.49
2022-10-17T13:37:12.277Z,91.82
2022-10-17T13:39:55.182Z,92.57
2022-10-17T13:42:30.316Z,92.74
2022-10-17T13:45:01.040Z,93.09
2022-10-17T13:47:34.005Z,92.94
2022-10-17T13:50:02.662Z,92.72
2022-10-17T13:52:32.570Z,93.22
2022-10-17T13:55:17.909Z,93.24
2022-10-17T13:57:46.294Z,93.19
2022-10-17T14:00:23.892Z,92.83
2022-10-17T14:02:52.258Z,92.68
2022-10-17T14:05:24.655Z,92.96
2022-10-17T14:08:12.093Z,93.36
2022-10-17T14:10:43.105Z,93.30
2022-10-17T14:13:26.992Z,93.21
2022-10-17T14:15:58.500Z,93.64
2022-10-17T14:18:36.114Z,93.01
2022-10-17T14:24:24.653Z,92.29
2022-10-17T14:26:55.439Z,92.34
2022-10-17T14:29:51.366Z,92.36
2022-10-17T14:32:21.022Z,92.43
2022-10-17T14:35:00.695Z,92.95
2022-10-17T14:37:52.084Z,92.86
2022-10-17T14:40:24.423Z,93.12
2022-10-17T14:42:58.456Z,93.31
2022-10-17T14:45:31.685Z,93.66
2022-10-17T14:48:17.761Z,94.26
2022-10-17T14:51:07.248Z,94.13
2022-10-17T14:53:35.932Z,94.13
2022-10-17T14:56:21.489Z,94.36
2022-10-17T14:58:49.872Z,94.48
2022-10-17T15:01:18.252Z,94.65
2022-10-17T15:03:47.152Z,94.70
2022-10-17T15:06:30.353Z,94.94
2022-10-17T15:08:59.457Z,95.03
2022-10-17T15:11:28.199Z,94.14
2022-10-17T15:13:56.593Z,94.84
2022-10-17T15:16:27.741Z,94.79
2022-10-17T15:18:56.242Z,95.19
2022-10-17T15:21:39.244Z,94.69
2022-10-17T15:24:16.716Z,94.02
2022-10-17T15:26:45.116Z,93.89
2022-10-17T15:29:17.132Z,94.48
2022-10-17T15:31:45.601Z,94.45
2022-10-17T15:34:14.007Z,94.53
2022-10-17T15:36:44.295Z,94.38
2022-10-17T15:39:12.658Z,94.77
2022-10-17T15:41:41.230Z,95.12
2022-10-17T15:44:09.777Z,94.99
2022-10-17T15:46:42.359Z,95.48
2022-10-17T15:49:18.226Z,95.49
2022-10-17T15:51:50.303Z,95.69
2022-10-17T15:54:20.037Z,95.71
2022-10-17T15:56:55.099Z,95.56
2022-10-17T15:59:29.907Z,95.21
2022-10-17T16:01:58.340Z,95.17
2022-10-17T16:04:28.463Z,94.97
2022-10-17T16:06:56.784Z,95.17
2022-10-17T16:09:25.167Z,95.24
2022-10-17T16:11:53.600Z,95.41
2022-10-17T16:14:21.966Z,95.38
2022-10-17T16:16:50.291Z,93.59
2022-10-17T16:19:18.721Z,92.06
2022-10-17T16:21:47.079Z,94.03
2022-10-17T16:24:15.446Z,94.38
2022-10-17T16:26:43.883Z,94.82
2022-10-17T16:29:12.357Z,95.55
2022-10-17T16:31:46.333Z,96.16
2022-10-17T16:34:16.086Z,95.97
2022-10-17T16:36:44.702Z,96.57
2022-10-17T16:39:13.122Z,96.40
2022-10-17T16:41:41.616Z,96.58
2022-10-17T16:44:17.419Z,96.28
2022-10-17T16:46:45.920Z,95.70
2022-10-17T16:49:16.972Z,96.79
2022-10-17T16:51:45.642Z,95.74
2022-10-17T16:54:13.922Z,96.69
2022-10-17T16:56:43.095Z,97.07
2022-10-17T16:59:13.416Z,97.18
2022-10-17T17:01:41.792Z,97.10
2022-10-17T17:04:10.430Z,97.50
2022-10-17T17:06:38.982Z,96.09
2022-10-17T17:09:07.386Z,96.24
2022-10-17T17:11:36.050Z,95.98
2022-10-17T17:14:05.951Z,96.07
2022-10-17T17:16:36.084Z,95.62
2022-10-17T17:19:08.209Z,95.45
2022-10-17T17:21:36.870Z,95.41
2022-10-17T17:24:06.348Z,95.34
2022-10-17T17:26:39.959Z,94.75
2022-10-17T17:29:08.381Z,94.88
2022-10-17T17:31:37.415Z,94.70
2022-10-17T17:34:06.221Z,94.59
2022-10-17T17:36:38.200Z,94.37
2022-10-17T17:39:09.631Z,93.42
2022-10-17T17:41:38.029Z,93.69
2022-10-17T17:44:06.640Z,93.35
2022-10-17T17:46:35.053Z,93.39
2022-10-17T17:49:03.604Z,93.27
2022-10-17T17:51:31.952Z,93.07
2022-10-17T17:54:00.258Z,92.77
2022-10-17T17:56:30.952Z,92.85
2022-10-17T17:59:01.803Z,92.94
2022-10-17T18:01:33.081Z,92.66
2022-10-17T18:04:01.496Z,92.98
2022-10-17T18:06:30.347Z,93.25
2022-10-17T18:09:00.090Z,92.89
2022-10-17T18:11:29.509Z,92.75
2022-10-17T18:14:02.681Z,92.28
2022-10-17T18:16:32.903Z,92.16
2022-10-17T18:19:07.093Z,92.16
2022-10-17T18:21:36.831Z,92.05
2022-10-17T18:24:05.860Z,92.34
2022-10-17T18:26:34.445Z,92.33
2022-10-17T18:29:03.139Z,92.39
2022-10-17T18:31:36.459Z,92.36
2022-10-17T18:34:06.625Z,92.18
2022-10-17T18:36:36.443Z,91.09
2022-10-17T18:39:05.843Z,91.63
2022-10-17T18:41:34.959Z,92.14
2022-10-17T18:44:06.504Z,92.49
2022-10-17T18:46:41.409Z,92.73
2022-10-17T18:49:16.111Z,92.40
2022-10-17T18:51:44.521Z,92.56
2022-10-17T18:54:21.434Z,92.27
2022-10-17T18:56:55.022Z,92.26
2022-10-17T18:59:23.867Z,92.53
2022-10-17T19:01:52.382Z,92.21
2022-10-17T19:04:20.935Z,92.09
2022-10-17T19:06:49.478Z,92.11
2022-10-17T19:09:17.975Z,91.92
2022-10-17T19:11:46.408Z,91.53
2022-10-17T19:14:15.495Z,91.58
2022-10-17T19:16:48.574Z,92.05
2022-10-17T19:19:19.784Z,92.21
2022-10-17T19:21:48.518Z,91.82
2022-10-17T19:24:20.032Z,91.33
2022-10-17T19:26:54.460Z,91.24
2022-10-17T19:29:26.124Z,91.01
2022-10-17T19:34:24.230Z,91.33
2022-10-17T19:36:53.179Z,91.86
2022-10-17T19:39:24.238Z,92.23
2022-10-17T19:41:52.928Z,92.30
2022-10-17T19:44:21.234Z,92.25
2022-10-17T19:46:50.162Z,91.96
2022-10-17T19:49:19.002Z,91.63
2022-10-17T19:51:47.786Z,92.34
2022-10-17T19:54:19.243Z,92.48
2022-10-17T19:56:48.117Z,92.64
2022-10-17T19:59:17.946Z,92.71
2022-10-17T20:01:47.414Z,92.82
2022-10-17T20:04:16.144Z,92.69
2022-10-17T20:06:44.639Z,93.08
2022-10-17T20:09:16.890Z,92.98
2022-10-17T20:11:46.043Z,93.08
2022-10-17T20:14:14.375Z,92.72
2022-10-17T20:16:42.813Z,92.91
2022-10-17T20:19:13.373Z,93.11
2022-10-17T20:21:41.755Z,93.46
2022-10-17T20:24:13.590Z,93.61
2022-10-17T20:26:42.892Z,93.80
2022-10-17T20:29:16.223Z,93.90
2022-10-17T20:31:46.155Z,94.53
2022-10-17T20:34:16.350Z,94.65
2022-10-17T20:36:45.186Z,94.46
2022-10-17T20:39:15.214Z,94.80
2022-10-17T20:41:43.931Z,95.15
2022-10-17T20:44:13.013Z,95.02
2022-10-17T20:46:52.755Z,95.27
2022-10-17T20:49:28.950Z,95.42
2022-10-17T20:51:57.747Z,95.48
2022-10-17T20:54:26.433Z,95.30
2022-10-17T20:56:56.477Z,95.29
2022-10-17T20:59:26.769Z,95.41
2022-10-17T21:01:55.665Z,95.50
2022-10-17T21:07:12.486Z,95.77
2022-10-17T21:09:40.870Z,95.96
2022-10-17T21:12:09.269Z,96.11
2022-10-17T21:14:37.631Z,96.51
2022-10-17T21:17:06.145Z,96.40
2022-10-17T21:19:34.819Z,96.58
2022-10-17T21:22:03.292Z,96.49
2022-10-17T21:24:32.428Z,96.58
2022-10-17T21:27:00.828Z,97.10
2022-10-17T21:29:29.293Z,96.86
2022-10-17T21:31:57.780Z,96.53
2022-10-17T21:34:26.262Z,96.57
2022-10-17T21:36:54.822Z,96.52
2022-10-17T21:39:25.720Z,96.59
2022-10-17T21:41:54.371Z,96.36
2022-10-17T21:44:25.602Z,96.72
2022-10-17T21:46:54.975Z,97.32
2022-10-17T21:49:25.753Z,96.83
2022-10-17T21:51:55.238Z,97.07
2022-10-17T21:54:24.520Z,97.02
2022-10-17T21:56:53.533Z,97.08
2022-10-17T21:59:22.003Z,97.16
2022-10-17T22:01:50.441Z,96.93
2022-10-17T22:04:20.902Z,96.90
2022-10-17T22:06:52.112Z,97.17
2022-10-17T22:09:26.580Z,96.30
2022-10-17T22:11:57.646Z,96.65
2022-10-17T22:14:27.758Z,96.45
2022-10-17T22:16:57.146Z,96.97
2022-10-17T22:19:27.565Z,96.59
2022-10-17T22:21:56.765Z,96.54
2022-10-17T22:24:25.218Z,96.68
2022-10-17T22:26:53.809Z,97.01
2022-10-17T22:29:22.175Z,96.89
2022-10-17T22:31:50.765Z,96.42
2022-10-17T22:34:19.551Z,97.05
2022-10-17T22:36:49.795Z,96.76
2022-10-17T22:39:18.328Z,96.92
2022-10-17T22:41:46.698Z,96.87
2022-10-17T22:44:15.177Z,97.23
2022-10-17T22:46:43.582Z,97.22
2022-10-17T22:49:11.885Z,97.01
2022-10-17T22:51:40.277Z,96.65
2022-10-17T22:54:08.852Z,96.39
2022-10-17T22:56:37.217Z,96.42
2022-10-17T22:59:05.700Z,96.30
2022-10-17T23:01:34.093Z,96.35
2022-10-17T23:04:02.539Z,96.38
2022-10-17T23:06:30.933Z,96.79
2022-10-17T23:08:59.936Z,97.05
2022-10-17T23:11:28.270Z,97.03
2022-10-17T23:13:56.656Z,97.18
2022-10-17T23:16:25.057Z,96.98
2022-10-17T23:18:53.381Z,96.89
2022-10-17T23:21:21.706Z,97.04
2022-10-17T23:23:50.117Z,97.33
2022-10-17T23:26:18.493Z,97.46
2022-10-17T23:28:47.124Z,97.06
2022-10-17T23:31:16.382Z,96.98
2022-10-17T23:33:46.266Z,96.80
2022-10-17T23:36:17.138Z,96.55
2022-10-17T23:38:47.245Z,96.53
2022-10-17T23:41:16.466Z,96.34
2022-10-17T23:43:45.687Z,96.25
2022-10-17T23:46:14.623Z,96.26
2022-10-17T23:48:43.395Z,96.20
2022-10-17T23:51:12.508Z,96.22
2022-10-17T23:53:41.513Z,95.91
2022-10-17T23:56:12.236Z,95.71
2022-10-17T23:58:41.029Z,95.52
